createdAt,value
2023-03-22T00:00:14.091Z,1.42
2023-03-22T00:02:41.773Z,1.58
2023-03-22T00:05:09.632Z,1.50
2023-03-22T00:07:37.697Z,1.40
2023-03-22T00:10:05.832Z,1.80
2023-03-22T00:12:33.084Z,1.50
2023-03-22T00:15:01.193Z,1.52
2023-03-22T00:17:28.583Z,1.83
2023-03-22T00:19:55.952Z,1.48
2023-03-22T00:22:23.337Z,1.60
2023-03-22T00:24:50.749Z,2.00
2023-03-22T00:27:18.088Z,1.40
2023-03-22T00:29:45.784Z,1.70
2023-03-22T00:32:13.028Z,2.17
2023-03-22T00:34:40.400Z,1.73
2023-03-22T00:37:08.041Z,1.80
2023-03-22T00:39:35.383Z,2.00
2023-03-22T00:42:04.248Z,2.03
2023-03-22T00:44:31.579Z,2.00
2023-03-22T00:46:58.802Z,2.10
2023-03-22T00:49:27.211Z,2.45
2023-03-22T00:51:54.887Z,2.22
2023-03-22T00:54:22.221Z,1.90
2023-03-22T00:56:49.986Z,2.45
2023-03-22T00:59:17.838Z,1.98
2023-03-22T01:01:45.192Z,2.28
2023-03-22T01:04:18.374Z,2.38
2023-03-22T01:06:47.206Z,1.85
2023-03-22T01:09:15.124Z,1.65
2023-03-22T01:11:43.667Z,1.67
2023-03-22T01:14:13.917Z,2.08
2023-03-22T01:16:41.459Z,2.00
2023-03-22T01:19:09.283Z,1.67
2023-03-22T01:21:36.896Z,1.90
2023-03-22T01:24:04.403Z,1.85
2023-03-22T01:26:31.699Z,1.95
2023-03-22T01:28:58.983Z,2.22
2023-03-22T01:31:26.299Z,1.90
2023-03-22T01:33:54.425Z,1.98
2023-03-22T01:36:23.340Z,1.98
2023-03-22T01:38:50.804Z,1.85
2023-03-22T01:41:18.706Z,1.90
2023-03-22T01:43:46.812Z,1.83
2023-03-22T01:46:14.180Z,1.90
2023-03-22T01:48:45.951Z,1.60
2023-03-22T01:51:28.161Z,1.83
2023-03-22T01:54:23.985Z,1.80
2023-03-22T01:56:52.215Z,1.52
2023-03-22T01:59:30.421Z,2.15
2023-03-22T02:02:24.877Z,1.70
2023-03-22T02:05:00.102Z,1.70
2023-03-22T02:07:31.748Z,2.00
2023-03-22T02:10:00.140Z,2.10
2023-03-22T02:12:59.001Z,1.67
2023-03-22T02:15:51.890Z,2.03
2023-03-22T02:18:46.946Z,1.70
2023-03-22T02:21:17.181Z,2.10
2023-03-22T02:23:47.807Z,1.55
2023-03-22T02:26:15.428Z,1.88
2023-03-22T02:28:46.800Z,2.10
2023-03-22T02:31:33.070Z,2.42
2023-03-22T02:34:29.784Z,2.05
2023-03-22T02:37:12.671Z,2.20
2023-03-22T02:40:14.372Z,2.03
2023-03-22T02:45:15.511Z,2.35
2023-03-22T02:47:43.436Z,3.40
2023-03-22T02:50:13.804Z,2.70
2023-03-22T02:52:51.483Z,2.95
2023-03-22T02:55:31.544Z,3.00
2023-03-22T02:58:01.395Z,3.20
2023-03-22T03:00:29.548Z,3.38
2023-03-22T03:03:00.099Z,3.22
2023-03-22T03:05:30.849Z,3.80
2023-03-22T03:08:00.158Z,4.10
2023-03-22T03:10:29.178Z,4.40
2023-03-22T03:12:56.466Z,4.30
2023-03-22T03:15:23.804Z,4.30
2023-03-22T03:18:06.595Z,5.03
2023-03-22T03:20:53.028Z,4.57
2023-03-22T03:23:39.190Z,5.05
2023-03-22T03:26:15.835Z,5.38
2023-03-22T03:28:54.786Z,4.90
2023-03-22T03:31:35.627Z,5.45
2023-03-22T03:34:32.295Z,5.50
2023-03-22T03:37:02.387Z,5.75
2023-03-22T03:39:31.552Z,5.80
2023-03-22T03:42:00.513Z,6.80
2023-03-22T03:44:28.344Z,6.85
2023-03-22T03:46:56.263Z,6.25
2023-03-22T03:49:24.004Z,7.10
2023-03-22T03:51:53.008Z,6.20
2023-03-22T03:54:20.661Z,6.47
2023-03-22T03:56:48.630Z,6.38
2023-03-22T03:59:17.057Z,6.72
2023-03-22T04:01:50.531Z,6.22
2023-03-22T04:04:27.717Z,6.65
2023-03-22T04:07:06.179Z,6.45
2023-03-22T04:09:37.614Z,6.32
2023-03-22T04:12:15.278Z,6.90
2023-03-22T04:14:46.722Z,6.78
2023-03-22T04:17:21.826Z,6.20
2023-03-22T04:19:49.403Z,6.45
2023-03-22T04:22:18.469Z,6.78
2023-03-22T04:24:50.117Z,6.35
2023-03-22T04:27:20.158Z,6.45
2023-03-22T04:29:59.356Z,6.45
2023-03-22T04:32:55.487Z,6.68
2023-03-22T04:35:31.550Z,6.72
2023-03-22T04:38:01.290Z,6.05
2023-03-22T04:40:35.215Z,7.07
2023-03-22T04:43:18.988Z,6.20
2023-03-22T04:45:54.924Z,6.25
2023-03-22T04:48:28.161Z,6.13
2023-03-22T04:50:57.046Z,6.60
2023-03-22T04:53:27.545Z,5.60
2023-03-22T04:55:59.331Z,6.82
2023-03-22T04:58:28.621Z,5.65
2023-03-22T05:00:55.880Z,6.35
2023-03-22T05:03:23.809Z,5.88
2023-03-22T05:05:56.680Z,6.00
2023-03-22T05:08:29.342Z,5.57
2023-03-22T05:10:58.548Z,5.78
2023-03-22T05:15:53.519Z,5.55
2023-03-22T05:18:27.732Z,5.65
2023-03-22T05:20:57.478Z,5.40
2023-03-22T05:23:25.015Z,5.28
2023-03-22T05:25:58.291Z,5.28
2023-03-22T05:28:27.263Z,5.18
2023-03-22T05:31:05.559Z,5.30
2023-03-22T05:33:42.309Z,5.45
2023-03-22T05:36:11.951Z,5.65
2023-03-22T05:38:51.303Z,5.20
2023-03-22T05:41:19.634Z,5.22
2023-03-22T05:43:47.319Z,5.03
2023-03-22T05:46:15.546Z,5.25
2023-03-22T05:49:01.334Z,5.00
2023-03-22T05:51:29.805Z,4.90
2023-03-22T05:53:57.814Z,4.72
2023-03-22T05:56:31.636Z,4.85
2023-03-22T05:59:07.030Z,4.80
2023-03-22T06:01:35.238Z,4.70
2023-03-22T06:04:28.768Z,4.85
2023-03-22T06:06:58.900Z,4.20
2023-03-22T06:09:44.998Z,4.72
2023-03-22T06:12:17.212Z,4.47
2023-03-22T06:14:49.240Z,5.00
2023-03-22T06:17:37.869Z,4.47
2023-03-22T06:20:11.870Z,4.50
2023-03-22T06:22:41.892Z,4.00
2023-03-22T06:25:10.333Z,4.07
2023-03-22T06:27:42.235Z,4.10
2023-03-22T06:30:09.995Z,3.90
2023-03-22T06:32:53.578Z,4.20
2023-03-22T06:35:21.061Z,4.10
2023-03-22T06:37:48.436Z,4.05
2023-03-22T06:40:15.901Z,3.70
2023-03-22T06:42:43.404Z,5.38
2023-03-22T06:45:16.390Z,4.50
2023-03-22T06:47:45.667Z,3.88
2023-03-22T06:50:44.257Z,3.67
2023-03-22T06:53:35.234Z,3.65
2023-03-22T06:56:04.048Z,3.55
2023-03-22T06:58:36.961Z,3.22
2023-03-22T07:01:04.404Z,2.65
2023-03-22T07:03:33.035Z,3.28
2023-03-22T07:06:07.333Z,3.65
2023-03-22T07:08:37.670Z,3.00
2023-03-22T07:11:06.758Z,2.90
2023-03-22T07:13:35.053Z,3.40
2023-03-22T07:16:08.906Z,3.60
2023-03-22T07:18:40.863Z,2.90
2023-03-22T07:21:08.600Z,3.15
2023-03-22T07:23:39.461Z,2.88
2023-03-22T07:26:13.362Z,3.03
2023-03-22T07:28:44.655Z,3.05
2023-03-22T07:31:14.162Z,2.50
2023-03-22T07:33:52.208Z,2.80
2023-03-22T07:36:25.747Z,2.67
2023-03-22T07:38:54.553Z,2.95
2023-03-22T07:41:30.163Z,3.00
2023-03-22T07:44:29.832Z,2.33
2023-03-22T07:47:40.417Z,2.40
2023-03-22T07:50:26.825Z,2.50
2023-03-22T07:52:56.948Z,2.25
2023-03-22T07:55:24.207Z,2.20
2023-03-22T07:57:51.787Z,2.45
2023-03-22T08:00:19.500Z,2.38
2023-03-22T08:02:56.985Z,2.33
2023-03-22T08:05:42.012Z,2.30
2023-03-22T08:08:13.637Z,2.45
2023-03-22T08:10:41.584Z,2.55
2023-03-22T08:13:09.163Z,2.40
2023-03-22T08:15:38.417Z,2.53
2023-03-22T08:18:08.710Z,2.40
2023-03-22T08:20:40.106Z,2.50
2023-03-22T08:23:16.086Z,2.50
2023-03-22T08:26:18.791Z,2.40
2023-03-22T08:28:46.539Z,2.60
2023-03-22T08:31:16.096Z,2.60
2023-03-22T08:33:45.706Z,2.45
2023-03-22T08:36:16.709Z,2.53
2023-03-22T08:38:50.292Z,2.92
2023-03-22T08:41:19.603Z,3.47
2023-03-22T08:43:47.083Z,3.03
2023-03-22T08:46:14.628Z,2.72
2023-03-22T08:48:42.321Z,3.00
2023-03-22T08:51:19.373Z,2.70
2023-03-22T08:54:13.647Z,3.83
2023-03-22T08:56:52.813Z,2.90
2023-03-22T08:59:40.515Z,3.13
2023-03-22T09:02:23.082Z,3.20
2023-03-22T09:04:50.892Z,3.00
2023-03-22T09:07:20.323Z,3.00
2023-03-22T09:09:56.040Z,2.78
2023-03-22T09:12:25.245Z,3.22
2023-03-22T09:14:53.849Z,2.90
2023-03-22T09:17:22.590Z,3.08
2023-03-22T09:19:57.702Z,3.03
2023-03-22T09:22:32.828Z,2.60
2023-03-22T09:25:01.891Z,2.72
2023-03-22T09:27:29.778Z,2.80
2023-03-22T09:29:57.327Z,2.97
2023-03-22T09:32:24.585Z,3.33
2023-03-22T09:34:58.404Z,2.95
2023-03-22T09:37:37.627Z,3.30
2023-03-22T09:40:07.642Z,3.20
2023-03-22T09:42:40.937Z,3.08
2023-03-22T09:45:20.588Z,3.15
2023-03-22T09:47:51.518Z,3.10
2023-03-22T09:50:18.797Z,2.88
2023-03-22T09:52:46.486Z,3.10
2023-03-22T09:55:23.222Z,2.90
2023-03-22T09:58:05.884Z,2.95
2023-03-22T10:00:42.971Z,2.83
2023-03-22T10:03:10.840Z,2.70
2023-03-22T10:06:05.075Z,2.70
2023-03-22T10:08:53.222Z,2.90
2023-03-22T10:11:27.860Z,3.22
2023-03-22T10:14:05.958Z,2.70
2023-03-22T10:16:35.723Z,3.00
2023-03-22T10:19:17.535Z,3.05
2023-03-22T10:21:47.402Z,3.78
2023-03-22T10:24:19.044Z,3.08
2023-03-22T10:26:47.923Z,3.28
2023-03-22T10:29:29.274Z,3.33
2023-03-22T10:31:57.163Z,2.90
2023-03-22T10:34:31.212Z,3.05
2023-03-22T10:37:00.965Z,3.08
2023-03-22T10:39:31.321Z,2.90
2023-03-22T10:42:02.172Z,2.80
2023-03-22T10:44:34.693Z,3.20
2023-03-22T10:47:07.918Z,3.45
2023-03-22T10:49:44.933Z,2.88
2023-03-22T10:52:19.227Z,2.97
2023-03-22T10:54:46.818Z,2.70
2023-03-22T10:57:14.090Z,2.72
2023-03-22T10:59:52.281Z,3.17
2023-03-22T11:02:22.867Z,2.90
2023-03-22T11:04:51.861Z,2.65
2023-03-22T11:07:29.735Z,2.50
2023-03-22T11:10:09.339Z,3.00
2023-03-22T11:12:42.051Z,3.13
2023-03-22T11:15:35.800Z,2.65
2023-03-22T11:18:08.385Z,2.85
2023-03-22T11:20:36.040Z,3.00
2023-03-22T11:23:09.698Z,2.80
2023-03-22T11:25:43.837Z,2.90
2023-03-22T11:28:19.204Z,2.67
2023-03-22T11:31:13.046Z,3.75
2023-03-22T11:33:55.881Z,2.38
2023-03-22T11:36:23.333Z,2.47
2023-03-22T11:38:57.214Z,2.28
2023-03-22T11:41:26.618Z,2.40
2023-03-22T11:43:58.027Z,2.38
2023-03-22T11:46:25.790Z,3.00
2023-03-22T11:48:59.513Z,2.05
2023-03-22T11:51:35.127Z,2.42
2023-03-22T11:54:08.530Z,2.38
2023-03-22T11:56:40.608Z,2.38
2023-03-22T11:59:09.644Z,2.28
2023-03-22T12:01:59.161Z,2.50
2023-03-22T12:04:34.857Z,2.47
2023-03-22T12:09:44.167Z,2.80
2023-03-22T12:12:16.041Z,2.30
2023-03-22T12:14:49.566Z,2.38
2023-03-22T12:17:43.155Z,2.50
2023-03-22T12:20:44.120Z,2.88
2023-03-22T12:23:14.514Z,3.05
2023-03-22T12:25:46.335Z,2.72
2023-03-22T12:28:16.497Z,2.58
2023-03-22T12:30:49.114Z,2.60
2023-03-22T12:33:19.987Z,3.00
2023-03-22T12:35:48.000Z,2.80
2023-03-22T12:38:41.609Z,2.58
2023-03-22T12:41:14.940Z,2.90
2023-03-22T12:43:42.203Z,3.15
2023-03-22T12:46:15.828Z,2.78
2023-03-22T12:49:01.493Z,2.65
2023-03-22T12:51:28.893Z,2.72
2023-03-22T12:53:57.490Z,3.00
2023-03-22T12:56:32.715Z,2.90
2023-03-22T12:59:03.635Z,2.70
2023-03-22T13:01:51.350Z,2.90
2023-03-22T13:04:31.767Z,2.90
2023-03-22T13:07:09.434Z,3.45
2023-03-22T13:09:42.845Z,3.05
2023-03-22T13:12:16.384Z,2.95
2023-03-22T13:14:50.038Z,3.28
2023-03-22T13:17:23.213Z,2.90
2023-03-22T13:20:13.599Z,2.97
2023-03-22T13:22:41.716Z,3.22
2023-03-22T13:25:17.191Z,3.50
2023-03-22T13:27:57.438Z,3.40
2023-03-22T13:30:36.381Z,3.10
2023-03-22T13:33:09.692Z,3.30
2023-03-22T13:35:37.171Z,3.08
2023-03-22T13:38:09.665Z,3.05
2023-03-22T13:40:44.127Z,3.33
2023-03-22T13:43:14.415Z,2.90
2023-03-22T13:46:01.030Z,2.72
2023-03-22T13:48:33.575Z,3.22
2023-03-22T13:51:09.850Z,3.22
2023-03-22T13:53:37.579Z,3.70
2023-03-22T13:56:07.344Z,3.83
2023-03-22T13:58:37.753Z,3.90
2023-03-22T14:01:16.429Z,3.67
2023-03-22T14:03:45.644Z,3.60
2023-03-22T14:08:42.474Z,3.80
2023-03-22T14:11:12.918Z,3.65
2023-03-22T14:13:44.996Z,3.60
2023-03-22T14:16:41.532Z,3.63
2023-03-22T14:19:09.935Z,3.72
2023-03-22T14:21:44.006Z,3.85
